Pope Air Force Base
KPOB : rendu visible

Aérodrome :











RETROUVEZ-NOUS SUR...

 
LOGIN :

S'inscrire | Disclaimer

   EN    FR    IT 

 









Légende :    VFR   VFR Marginal   IFR   IFR Intensif   IFR Très Intensif
Visi : 
Plafond : 
>= 8 km
>= 3000ft
5 à 8 km
1000 à 3000 ft
1500m à 5 km
500 à 1000 ft
800 à 1500m
200 à 500 ft
< 800m
< 200 ft
Symboles :   Orages  Brouillard  Fortes neiges  Fortes précipitations  Vent > 20 kt






- Altitude de l'aérodrome : 217 ft


KPOB - Pope Air Force Base

DERNIER METAR :
  • 230856Z AUTO 00000KT 10SM CLR 10/08 A3006 RMK AO2 SLP182 T01000081 57009 $

METARs EXPIRÉS :
  • 230756Z AUTO 00000KT 10SM CLR 10/09 A3006 RMK AO2 SLPNO T01040085 $
  • 230656Z AUTO 00000KT 10SM CLR 11/09 A3007 RMK AO2 SLP185 T01060085 $

TAF TAF KPOB
Valide du 23 à 09h jusqu'au 24 à 15h UTC


230900Z 2309/2415 25006KT 9999 FEW050 SCT200 QNH3004INS
BECMG 2315/2316 25009KT 9999 SCT050 BKN200 QNH3002INS TX24/2320Z TN09/2408Z
FIR KZDC / Amérique du Nord



MET'MAP, la Météo Aéronautique d'un coup d'oeil ! - Copyright ORBIFLY Décembre 2007 - Disclaimer

ORBIFLY MET'MAP TEAM :

Programmation & Développement : Alexandra Zaïnal
Sur une idée originale de : Baudouin d'Aumeries
Assistance à la programmation : Marc-Olivier Méhu
Soutien technique & logistique : Manuel Goepfert

Contact : metmap@orbifly.com




SOURCES & CREDITS :

   NOAA       Earth
Advisory